Ivory Coast — WDC4732 — position and weather

sailwx.info

Track history (hours):
 
Tides and Currents Weather Stations Pressure Air Temp Water Temp Dewpoint Dewpoint Depression Visibility Wind Speed Wind Dir Waves Ship Positions

Ivory Coast

Owner: Dann Marine Towing, LC, Chesapeake City, MD. More information available from US FCC via Universal Licensing System and Coast Guard Vessel Documentation Center.

Last reported at 2018-Feb-18 06:30 UTC. Time now 2018-Feb-18 06:52 UTC.
Position N 39°29' W 075°34'.

Length 33 m; draft 5 m.

Type: Tug. MMSI: 367029690.

Date/timePositionNaut miles runAvg speedWind from/ knotsBaromVisibWave heightAir tempDewpointWater temp
2018-Feb-18 06:30N 39°29' W 075°34'3 6.1
2018-Feb-18 06:00N 39°32' W 075°33'3 5.5
2018-Feb-18 05:30N 39°35' W 075°33'3 5.2
2018-Feb-18 05:00N 39°37' W 075°35'3 5.1
2018-Feb-18 04:30N 39°39' W 075°33'3 5.2
2018-Feb-18 04:00N 39°41' W 075°31'3 5.5
2018-Feb-18 03:30N 39°44' W 075°30'3 6.2
2018-Feb-18 03:00N 39°47' W 075°28'3 6.9
2018-Feb-18 02:30N 39°49' W 075°24'1 2.8
2018-Feb-18 02:00N 39°49' W 075°23'0 0.9
2018-Feb-18 01:30N 39°50' W 075°22'0 0.6
2018-Feb-18 00:56N 39°50' W 075°22'0 0.0
2018-Feb-18 00:29N 39°50' W 075°22'0 0.0
2018-Feb-17 23:59N 39°50' W 075°22'0 0.0
2018-Feb-17 23:29N 39°50' W 075°22'0 0.0
2018-Feb-17 22:59N 39°50' W 075°22'0 0.0
2018-Feb-17 22:29N 39°50' W 075°22'0 0.0
2018-Feb-17 21:59N 39°50' W 075°22'0 0.0
2018-Feb-17 21:29N 39°50' W 075°22'0 0.0
2018-Feb-17 20:59N 39°50' W 075°22'0 0.0
2018-Feb-17 20:29N 39°50' W 075°22'0 0.3
2018-Feb-17 20:00N 39°50' W 075°22'2 4.1
2018-Feb-17 19:30N 39°49' W 075°24'4 8.9
2018-Feb-17 19:00N 39°46' W 075°29'612.0
2018-Feb-17 18:30N 39°40' W 075°32'510.4
2018-Feb-17 18:01N 39°35' W 075°34'611.7
2018-Feb-17 17:30N 39°30' W 075°34'611.6
2018-Feb-17 17:01N 39°24' W 075°30'611.4
2018-Feb-17 16:30N 39°20' W 075°25'612.8
2018-Feb-17 16:00N 39°15' W 075°20'612.5
2018-Feb-17 15:31N 39°10' W 075°16'611.6
2018-Feb-17 15:00N 39°05' W 075°12'4 7.0
2018-Feb-17 14:30N 39°02' W 075°15'1 1.2
2018-Feb-17 14:00N 39°02' W 075°15'1 2.2
2018-Feb-17 13:30N 39°02' W 075°14'2 4.5
2018-Feb-17 13:00N 39°04' W 075°13'2 4.9
2018-Feb-17 12:30N 39°07' W 075°13'3 5.9
2018-Feb-17 12:00N 39°09' W 075°15'10 7.2
2018-Feb-17 10:40N 39°17' W 075°22'1 8.7
2018-Feb-17 10:30N 39°18' W 075°23'5 9.5
2018-Feb-17 10:01N 39°22' W 075°27'5 9.6
2018-Feb-17 09:30N 39°25' W 075°31'4 8.7
2018-Feb-17 09:00N 39°29' W 075°34'4 8.9
2018-Feb-17 08:30N 39°34' W 075°33'4 8.4
2018-Feb-17 08:00N 39°38' W 075°35'4 7.8
2018-Feb-17 07:31N 39°40' W 075°32'4 7.3
2018-Feb-17 06:59N 39°44' W 075°30'3 6.4
2018-Feb-17 06:27N 39°47' W 075°28'2 3.8
2018-Feb-17 06:00N 39°48' W 075°26'0 0.8
2018-Feb-17 05:30N 39°48' W 075°25'0 0.2
2018-Feb-17 04:21N 39°48' W 075°25'0 1.3
2018-Feb-17 04:00N 39°49' W 075°25'0 0.7
2018-Feb-17 03:25N 39°48' W 075°25'3 2.3
2018-Feb-17 02:10N 39°50' W 075°22'0 0.1
2018-Feb-17 01:57N 39°50' W 075°22'0 0.0
2018-Feb-17 01:28N 39°50' W 075°22'0 0.0
2018-Feb-16 21:30N 39°50' W 075°22'0 0.0
2018-Feb-16 20:03N 39°50' W 075°22'0 0.0
2018-Feb-16 19:51N 39°50' W 075°22'0 0.1
2018-Feb-16 18:54N 39°50' W 075°22'0 0.1
2018-Feb-16 18:30N 39°50' W 075°22'0 0.0
2018-Feb-16 18:00N 39°50' W 075°22'0 0.1
2018-Feb-16 17:30N 39°50' W 075°22'0 0.0
2018-Feb-16 17:00N 39°50' W 075°22'0 0.0
2018-Feb-16 16:30N 39°50' W 075°22'0 0.0
2018-Feb-16 16:00N 39°50' W 075°22'0 0.0
2018-Feb-16 15:30N 39°50' W 075°22'0 0.0
2018-Feb-16 15:00N 39°50' W 075°22'0 0.0
2018-Feb-16 14:30N 39°50' W 075°22'0 0.0
2018-Feb-16 13:57N 39°50' W 075°22'0 0.1
2018-Feb-16 13:30N 39°50' W 075°22'0 0.1
2018-Feb-16 12:57N 39°50' W 075°22'0 0.0
2018-Feb-16 12:30N 39°50' W 075°22'0 0.0
2018-Feb-16 12:00N 39°50' W 075°22'0 0.0
2018-Feb-16 11:30N 39°50' W 075°22'0 0.0
2018-Feb-16 11:00N 39°50' W 075°22'0 0.0
2018-Feb-16 10:30N 39°50' W 075°22'0 0.0
2018-Feb-16 10:00N 39°50' W 075°22'0 0.0
2018-Feb-16 09:30N 39°50' W 075°22'0 0.0
2018-Feb-16 09:00N 39°50' W 075°22'0 0.0
2018-Feb-16 08:30N 39°50' W 075°22'0 0.0
2018-Feb-16 08:00N 39°50' W 075°22'0 0.0
2018-Feb-16 07:30N 39°50' W 075°22'0 0.1
2018-Feb-16 06:57N 39°50' W 075°22'0 0.1
2018-Feb-16 06:30N 39°50' W 075°22'0 0.1
2018-Feb-16 06:00N 39°50' W 075°22'0 0.0
2018-Feb-16 05:30N 39°50' W 075°22'0 0.1
2018-Feb-16 05:00N 39°50' W 075°22'0 0.0
2018-Feb-16 04:30N 39°50' W 075°22'0 0.0
2018-Feb-16 04:00N 39°50' W 075°22'0 0.1
2018-Feb-16 03:30N 39°50' W 075°22'0 0.0
2018-Feb-16 03:00N 39°50' W 075°22'0 0.0
2018-Feb-16 02:30N 39°50' W 075°22'0 0.0
2018-Feb-16 02:00N 39°50' W 075°22'0 0.2
2018-Feb-16 01:30N 39°50' W 075°22'0 0.0
2018-Feb-15 23:06N 39°50' W 075°22'0 0.0
2018-Feb-15 23:00N 39°50' W 075°22'0 0.0
2018-Feb-15 22:30N 39°50' W 075°22'0 0.0
2018-Feb-15 22:00N 39°50' W 075°22'0 0.0
2018-Feb-15 21:30N 39°50' W 075°22'0 0.0
2018-Feb-15 21:00N 39°50' W 075°22'0 0.0
2018-Feb-15 20:30N 39°50' W 075°22'0 0.0
2018-Feb-15 20:00N 39°50' W 075°22'0 0.0
2018-Feb-15 19:30N 39°50' W 075°22'0 0.2
2018-Feb-15 19:00N 39°50' W 075°22'0 0.1
2018-Feb-15 18:30N 39°50' W 075°22'0 0.0
2018-Feb-15 18:00N 39°50' W 075°22'0 0.0
2018-Feb-15 17:30N 39°50' W 075°22'0 0.0
2018-Feb-15 16:57N 39°50' W 075°22'0 0.0
2018-Feb-15 16:30N 39°50' W 075°22'0 0.0
2018-Feb-15 16:00N 39°50' W 075°22'0 0.0
2018-Feb-15 15:30N 39°50' W 075°22'0 0.0
2018-Feb-15 15:00N 39°50' W 075°22'0 0.0
2018-Feb-15 14:29N 39°50' W 075°22'0 0.0
2018-Feb-15 14:00N 39°50' W 075°22'0 0.0
2018-Feb-15 13:30N 39°50' W 075°22'0 0.1
2018-Feb-15 12:57N 39°50' W 075°22'0 0.2
2018-Feb-15 12:30N 39°50' W 075°22'0 0.0
2018-Feb-15 12:00N 39°50' W 075°22'0 0.0
2018-Feb-15 11:30N 39°50' W 075°22'0 0.0
2018-Feb-15 11:00N 39°50' W 075°22'0 0.0
2018-Feb-15 10:30N 39°50' W 075°22'0 0.0
2018-Feb-15 10:00N 39°50' W 075°22'0 0.0
2018-Feb-15 09:30N 39°50' W 075°22'0 0.0
2018-Feb-15 09:00N 39°50' W 075°22'0 0.0
2018-Feb-15 08:30N 39°50' W 075°22'0 0.0
2018-Feb-15 08:00N 39°50' W 075°22'0 0.0
2018-Feb-15 07:30N 39°50' W 075°22'0 0.0
2018-Feb-15 07:00N 39°50' W 075°22'0 0.1
2018-Feb-15 06:30N 39°50' W 075°22'0 0.1
2018-Feb-15 06:00N 39°50' W 075°22'0 0.0
2018-Feb-15 05:30N 39°50' W 075°22'0 0.0
2018-Feb-15 05:00N 39°50' W 075°22'0 0.0
2018-Feb-15 04:31N 39°50' W 075°22'0 0.5
2018-Feb-15 04:00N 39°50' W 075°22'3 5.8
2018-Feb-15 03:30N 39°48' W 075°25'510.7
2018-Feb-15 03:00N 39°44' W 075°30'612.4
2018-Feb-15 02:30N 39°39' W 075°34'611.3
2018-Feb-15 02:01N 39°33' W 075°32'612.0
2018-Feb-15 01:30N 39°27' W 075°33'611.2
2018-Feb-15 01:00N 39°23' W 075°28'611.9
2018-Feb-15 00:30N 39°18' W 075°23'611.5
2018-Feb-15 00:00N 39°14' W 075°18'611.7
2018-Feb-14 23:30N 39°09' W 075°14'610.1
2018-Feb-14 22:53N 39°03' W 075°14'2 5.1
2018-Feb-14 22:30N 39°04' W 075°16'3 5.5
2018-Feb-14 22:01N 39°01' W 075°14'2 4.6
2018-Feb-14 21:30N 39°04' W 075°13'2 4.5
2018-Feb-14 21:01N 39°06' W 075°12'3 5.8
2018-Feb-14 20:31N 39°08' W 075°14'4 7.0
2018-Feb-14 20:00N 39°11' W 075°16'4 8.3
2018-Feb-14 19:30N 39°15' W 075°19'5 9.5
2018-Feb-14 19:00N 39°18' W 075°23'5 9.3
2018-Feb-14 18:31N 39°22' W 075°27'5 9.1
2018-Feb-14 18:00N 39°25' W 075°31'4 8.2
2018-Feb-14 17:30N 39°28' W 075°34'4 7.8
2018-Feb-14 16:59N 39°32' W 075°33'3 6.7
2018-Feb-14 16:30N 39°35' W 075°34'3 5.5
2018-Feb-14 16:01N 39°38' W 075°34'3 5.6
2018-Feb-14 15:30N 39°40' W 075°32'3 5.3
2018-Feb-14 15:00N 39°43' W 075°31'3 5.3
2018-Feb-14 14:31N 39°45' W 075°29'3 5.3
2018-Feb-14 14:00N 39°47' W 075°27'3 5.6
2018-Feb-14 13:30N 39°49' W 075°24'1 2.4
2018-Feb-14 13:00N 39°50' W 075°23'1 1.4
2018-Feb-14 12:31N 39°49' W 075°23'0 0.2
2018-Feb-14 12:01N 39°49' W 075°24'0 0.4
2018-Feb-14 11:30N 39°49' W 075°23'1 1.5
2018-Feb-14 11:00N 39°49' W 075°24'2 3.9
2018-Feb-14 10:31N 39°48' W 075°26'2 4.9
2018-Feb-14 10:01N 39°46' W 075°28'3 5.5
2018-Feb-14 09:30N 39°44' W 075°30'3 5.4
2018-Feb-14 09:01N 39°41' W 075°31'3 6.6
2018-Feb-14 08:30N 39°38' W 075°34'3 6.8
2018-Feb-14 08:01N 39°35' W 075°33'4 7.2
2018-Feb-14 07:30N 39°31' W 075°33'4 7.2
2018-Feb-14 07:00N 39°28' W 075°33'4 7.5
2018-Feb-14 06:30N 39°25' W 075°31'3 6.3
2018-Feb-14 06:00N 39°22' W 075°28'4 8.0
2018-Feb-14 05:30N 39°19' W 075°25'4 8.0
2018-Feb-14 05:00N 39°16' W 075°21'4 8.4
2018-Feb-14 04:30N 39°13' W 075°18'4 8.1
2018-Feb-14 04:00N 39°10' W 075°15'4 7.0
2018-Feb-14 03:30N 39°07' W 075°12'4 6.6
2018-Feb-14 02:55N 39°03' W 075°14'1 3.0
2018-Feb-14 02:30N 39°03' W 075°15'1 1.2
2018-Feb-14 02:00N 39°02' W 075°15'1 2.1
2018-Feb-14 01:30N 39°02' W 075°14'2 4.9
2018-Feb-14 01:00N 39°04' W 075°12'2 4.7
2018-Feb-14 00:30N 39°07' W 075°13'2 5.0
2018-Feb-14 00:00N 39°09' W 075°14'2 4.9
2018-Feb-13 23:30N 39°11' W 075°16'2 5.0
2018-Feb-13 23:00N 39°13' W 075°18'3 5.7
2018-Feb-13 22:30N 39°15' W 075°20'3 5.9
2018-Feb-13 22:00N 39°17' W 075°22'3 6.7
2018-Feb-13 21:30N 39°20' W 075°25'4 7.9
2018-Feb-13 21:00N 39°23' W 075°29'4 8.7
2018-Feb-13 20:30N 39°26' W 075°32'4 7.5
2018-Feb-13 20:00N 39°30' W 075°34'4 8.8
2018-Feb-13 19:30N 39°34' W 075°33'4 8.3
2018-Feb-13 19:00N 39°38' W 075°34'4 8.3
2018-Feb-13 18:30N 39°41' W 075°31'4 7.8
2018-Feb-13 18:00N 39°45' W 075°30'4 7.1
2018-Feb-13 17:30N 39°48' W 075°26'3 5.6
2018-Feb-13 17:01N 39°49' W 075°23'1 1.2
2018-Feb-13 16:30N 39°49' W 075°23'2 3.2
2018-Feb-13 16:00N 39°48' W 075°25'611.9
2018-Feb-13 15:31N 39°44' W 075°30'612.2
2018-Feb-13 15:00N 39°39' W 075°33'511.0
2018-Feb-13 14:30N 39°33' W 075°32'612.4
2018-Feb-13 14:00N 39°27' W 075°33'612.2
2018-Feb-13 13:30N 39°23' W 075°28'713.2
2018-Feb-13 13:00N 39°18' W 075°22'612.9
2018-Feb-13 12:30N 39°13' W 075°17'612.6
2018-Feb-13 12:00N 39°07' W 075°13'510.1
2018-Feb-13 11:30N 39°02' W 075°14'2 3.8
2018-Feb-13 11:00N 39°03' W 075°16'2 4.0
2018-Feb-13 10:30N 39°02' W 075°14'3 5.6
2018-Feb-13 10:00N 39°04' W 075°12'3 5.6
2018-Feb-13 09:30N 39°07' W 075°13'3 6.3
2018-Feb-13 09:00N 39°10' W 075°15'3 6.9
2018-Feb-13 08:30N 39°13' W 075°17'4 8.1
2018-Feb-13 08:00N 39°16' W 075°21'5 9.5
2018-Feb-13 07:30N 39°20' W 075°25'5 9.6
2018-Feb-13 07:01N 39°23' W 075°29'5 9.4
2018-Feb-13 06:30N 39°27' W 075°33'4 8.7
2018-Feb-13 06:00N 39°31' W 075°33'4 8.5
2018-Feb-13 05:30N 39°35' W 075°34'3 7.0
2018-Feb-13 05:00N 39°39' W 075°33'4 7.5
2018-Feb-13 04:30N 39°42' W 075°31'3 6.9
2018-Feb-13 04:00N 39°45' W 075°29'3 6.0
2018-Feb-13 03:30N 39°47' W 075°27'3 5.4
2018-Feb-13 03:00N 39°49' W 075°24'1 1.0
2018-Feb-13 02:31N 39°49' W 075°23'0 0.7
2018-Feb-13 02:01N 39°49' W 075°23'1 2.4
2018-Feb-13 01:31N 39°49' W 075°24'5 9.7
2018-Feb-13 01:00N 39°46' W 075°29'612.0
2018-Feb-13 00:30N 39°40' W 075°32'510.5
2018-Feb-13 00:00N 39°35' W 075°33'611.4
2018-Feb-12 23:30N 39°29' W 075°34'5 9.5
2018-Feb-12 23:00N 39°25' W 075°31'510.8
2018-Feb-12 22:31N 39°21' W 075°26'611.1
2018-Feb-12 22:00N 39°17' W 075°21'510.6
2018-Feb-12 21:30N 39°13' W 075°17'510.5
2018-Feb-12 21:00N 39°08' W 075°14'5 9.3
2018-Feb-12 20:29N 39°03' W 075°13'2 4.7
2018-Feb-12 20:00N 39°04' W 075°16'3 5.9
2018-Feb-12 19:30N 39°01' W 075°14'3 6.3
2018-Feb-12 19:00N 39°04' W 075°13'3 6.5
2018-Feb-12 18:30N 39°07' W 075°13'4 8.7
2018-Feb-12 18:00N 39°11' W 075°16'5 8.9
2018-Feb-12 17:30N 39°15' W 075°19'4 9.1
2018-Feb-12 17:00N 39°18' W 075°23'4 8.8
2018-Feb-12 16:30N 39°21' W 075°27'4 8.4
2018-Feb-12 16:00N 39°25' W 075°31'4 7.7
2018-Feb-12 15:30N 39°28' W 075°34'3 6.8
2018-Feb-12 15:00N 39°31' W 075°33'3 6.2
2018-Feb-12 14:30N 39°34' W 075°33'3 5.8
2018-Feb-12 14:00N 39°37' W 075°35'2 4.7
2018-Feb-12 13:30N 39°39' W 075°33'2 4.7
2018-Feb-12 13:00N 39°41' W 075°31'2 4.7
2018-Feb-12 12:30N 39°43' W 075°30'3 5.1
2018-Feb-12 12:00N 39°45' W 075°29'3 5.0
2018-Feb-12 11:30N 39°47' W 075°27'2 5.0
2018-Feb-12 11:00N 39°49' W 075°24'1 2.9
2018-Feb-12 10:31N 39°49' W 075°23'0 0.3
2018-Feb-12 10:00N 39°49' W 075°23'1 1.9
2018-Feb-12 09:30N 39°50' W 075°22'0 0.0
2018-Feb-12 09:01N 39°50' W 075°22'0 0.0
2018-Feb-12 08:30N 39°50' W 075°22'0 0.0
2018-Feb-12 08:00N 39°50' W 075°22'0 0.0
2018-Feb-12 07:29N 39°50' W 075°22'0 0.0
2018-Feb-12 06:59N 39°50' W 075°22'0 0.0
2018-Feb-12 06:29N 39°50' W 075°22'0 0.0
2018-Feb-12 05:59N 39°50' W 075°22'0 0.0
2018-Feb-12 05:29N 39°50' W 075°22'0 0.0
2018-Feb-12 04:59N 39°50' W 075°22'0 0.0
2018-Feb-12 04:29N 39°50' W 075°22'0 0.1
2018-Feb-12 03:59N 39°50' W 075°22'0 0.0
2018-Feb-12 03:29N 39°50' W 075°22'0 0.0
2018-Feb-12 02:59N 39°50' W 075°22'0 0.0
2018-Feb-12 02:29N 39°50' W 075°22'0 0.0
2018-Feb-12 01:59N 39°50' W 075°22'0 0.0
2018-Feb-12 01:29N 39°50' W 075°22'0 0.1
2018-Feb-12 00:59N 39°50' W 075°22'0 0.0
2018-Feb-12 00:29N 39°50' W 075°22'0 0.0
2018-Feb-11 23:59N 39°50' W 075°22'0 0.0
2018-Feb-11 23:29N 39°50' W 075°22'0 0.1
2018-Feb-11 22:59N 39°50' W 075°22'0 0.1
2018-Feb-11 22:30N 39°50' W 075°22'0 0.1
2018-Feb-11 22:01N 39°50' W 075°22'0 0.0
2018-Feb-11 21:30N 39°50' W 075°22'0 0.0
2018-Feb-11 21:00N 39°50' W 075°22'0 0.0
2018-Feb-11 20:30N 39°50' W 075°22'0 0.0
2018-Feb-11 20:01N 39°50' W 075°22'0 0.0
2018-Feb-11 19:30N 39°50' W 075°22'0 0.0
2018-Feb-11 19:01N 39°50' W 075°22'0 0.0
2018-Feb-11 18:31N 39°50' W 075°22'0 0.0
2018-Feb-11 18:01N 39°50' W 075°22'0 0.0
2018-Feb-11 17:30N 39°50' W 075°22'0 0.0
2018-Feb-11 17:00N 39°50' W 075°22'0 0.0
2018-Feb-11 16:30N 39°50' W 075°22'0 0.0
2018-Feb-11 15:59N 39°50' W 075°22'0 0.1
2018-Feb-11 15:29N 39°50' W 075°22'0 0.1
2018-Feb-11 14:59N 39°50' W 075°22'0 0.0
2018-Feb-11 14:29N 39°50' W 075°22'0 0.0
2018-Feb-11 13:59N 39°50' W 075°22'0 0.1
2018-Feb-11 13:29N 39°50' W 075°22'0 0.0
2018-Feb-11 12:56N 39°50' W 075°22'0 0.0
2018-Feb-11 12:29N 39°50' W 075°22'0 0.0
2018-Feb-11 11:59N 39°50' W 075°22'0 0.0
2018-Feb-11 11:26N 39°50' W 075°22'0 0.0
2018-Feb-11 10:59N 39°50' W 075°22'0 0.0
2018-Feb-11 10:29N 39°50' W 075°22'0 0.0
2018-Feb-11 09:59N 39°50' W 075°22'0 0.1
2018-Feb-11 09:29N 39°50' W 075°22'0 0.0
2018-Feb-11 08:59N 39°50' W 075°22'0 0.0
2018-Feb-11 08:29N 39°50' W 075°22'0 0.0
2018-Feb-11 07:59N 39°50' W 075°22'0 0.0
2018-Feb-11 07:29N 39°50' W 075°22'0 0.0
2018-Feb-11 06:59N 39°50' W 075°22'0 0.0
2018-Feb-11 06:29N 39°50' W 075°22'0 0.0
2018-Feb-11 05:59N 39°50' W 075°22'0 0.1
2018-Feb-11 05:30N 39°50' W 075°22'2 3.3
2018-Feb-11 05:00N 39°49' W 075°24'2 3.5
2018-Feb-11 04:30N 39°48' W 075°26'5 9.2
2018-Feb-11 04:00N 39°45' W 075°30'510.1
2018-Feb-11 03:30N 39°40' W 075°32'4 8.9
2018-Feb-11 03:00N 39°36' W 075°34'510.1
2018-Feb-11 02:30N 39°30' W 075°33'510.0
2018-Feb-11 02:00N 39°26' W 075°32'5 9.5
2018-Feb-11 01:30N 39°22' W 075°28'510.9
2018-Feb-11 01:00N 39°18' W 075°23'511.0
2018-Feb-11 00:30N 39°14' W 075°18'611.1
2018-Feb-11 00:00N 39°09' W 075°15'7 9.5
2018-Feb-10 23:17N 39°02' W 075°14'1 4.7
2018-Feb-10 22:59N 39°03' W 075°15'2 3.2
2018-Feb-10 22:29N 39°01' W 075°15'2 5.0
2018-Feb-10 22:00N 39°04' W 075°13'3 5.4
2018-Feb-10 21:30N 39°06' W 075°12'3 6.1
2018-Feb-10 21:00N 39°08' W 075°14'3 6.2
2018-Feb-10 20:31N 39°11' W 075°16'3 6.5
2018-Feb-10 20:00N 39°14' W 075°18'3 7.0
2018-Feb-10 19:31N 39°17' W 075°21'4 8.0
2018-Feb-10 19:01N 39°20' W 075°25'4 8.9
2018-Feb-10 18:30N 39°23' W 075°29'5 9.2
2018-Feb-10 18:01N 39°26' W 075°33'4 8.5
2018-Feb-10 17:30N 39°31' W 075°33'4 8.7
2018-Feb-10 17:00N 39°35' W 075°33'4 7.8
2018-Feb-10 16:30N 39°39' W 075°33'4 8.2
2018-Feb-10 16:01N 39°42' W 075°31'3 6.5
2018-Feb-10 15:30N 39°45' W 075°29'3 5.8
2018-Feb-10 15:01N 39°48' W 075°27'2 4.3
2018-Feb-10 14:30N 39°49' W 075°24'1 2.1
2018-Feb-10 14:00N 39°49' W 075°23'0 0.4
2018-Feb-10 13:29N 39°49' W 075°23'1 1.8
2018-Feb-10 12:59N 39°50' W 075°22'0 0.1
2018-Feb-10 12:29N 39°50' W 075°22'0 0.0
2018-Feb-10 11:59N 39°50' W 075°22'0 0.0
2018-Feb-10 11:29N 39°50' W 075°22'0 0.0
2018-Feb-10 10:59N 39°50' W 075°22'0 0.0
2018-Feb-10 10:29N 39°50' W 075°22'0 0.0
2018-Feb-10 09:59N 39°50' W 075°22'0 0.0
2018-Feb-10 09:29N 39°50' W 075°22'0 0.2
2018-Feb-10 08:59N 39°50' W 075°22'0 0.0
2018-Feb-10 08:29N 39°50' W 075°22'0 0.0
2018-Feb-10 07:59N 39°50' W 075°22'0 0.0
2018-Feb-10 07:29N 39°50' W 075°22'0 0.0
2018-Feb-10 06:59N 39°50' W 075°22'0 0.0
2018-Feb-10 06:29N 39°50' W 075°22'0 0.0
2018-Feb-10 05:59N 39°50' W 075°22'0 0.0
2018-Feb-10 05:29N 39°50' W 075°22'0 0.0
2018-Feb-10 04:59N 39°50' W 075°22'0 0.0
2018-Feb-10 04:29N 39°50' W 075°22'0 0.0
2018-Feb-10 03:59N 39°50' W 075°22'0 0.0
2018-Feb-10 03:30N 39°50' W 075°22'2 3.3
2018-Feb-10 03:01N 39°49' W 075°24'2 3.9
2018-Feb-10 02:30N 39°48' W 075°26'510.5
2018-Feb-10 02:01N 39°44' W 075°30'510.8
2018-Feb-10 01:30N 39°39' W 075°33'5 9.7
2018-Feb-10 01:00N 39°34' W 075°33'611.1
2018-Feb-10 00:30N 39°29' W 075°34'5 9.9
2018-Feb-10 00:00N 39°24' W 075°30'612.1
2018-Feb-09 23:30N 39°20' W 075°25'611.8
2018-Feb-09 23:00N 39°16' W 075°20'311.9
2018-Feb-09 22:46N 39°13' W 075°18'3 0.9
2018-Feb-09 19:01N 39°10' W 075°16'27 7.6
2018-Feb-09 15:30N 39°33' W 075°33'8 5.7
2018-Feb-09 14:00N 39°42' W 075°31'3 5.7
2018-Feb-09 13:30N 39°45' W 075°30'4 4.5
2018-Feb-09 12:30N 39°48' W 075°26'2 4.0
2018-Feb-09 12:00N 39°49' W 075°24'0 0.9
2018-Feb-09 11:30N 39°49' W 075°23'1 0.5
2018-Feb-09 10:30N 39°50' W 075°23'0 0.0
2018-Feb-09 10:00N 39°50' W 075°23'0 0.0
2018-Feb-09 09:30N 39°50' W 075°23'0 0.0
2018-Feb-09 08:30N 39°50' W 075°23'0 0.0
2018-Feb-09 07:30N 39°50' W 075°23'0 0.0
2018-Feb-09 06:00N 39°50' W 075°23'0 0.0
2018-Feb-09 05:30N 39°49' W 075°23'0 0.0
2018-Feb-09 05:00N 39°49' W 075°23'0 0.0
2018-Feb-09 04:30N 39°49' W 075°23'0 0.0
2018-Feb-09 03:30N 39°49' W 075°23'0 0.0
2018-Feb-09 03:00N 39°49' W 075°23'0 0.0
2018-Feb-09 02:30N 39°49' W 075°23'0 0.0
2018-Feb-09 02:00N 39°49' W 075°23'0 0.0
2018-Feb-09 01:30N 39°49' W 075°23'0 0.1
2018-Feb-09 00:00N 39°50' W 075°23'0 0.0
2018-Feb-08 23:30N 39°50' W 075°23'0 0.0
2018-Feb-08 23:00N 39°50' W 075°23'0 0.0
2018-Feb-08 22:30N 39°50' W 075°23'0 0.0
2018-Feb-08 22:00N 39°50' W 075°23'0 0.4
2018-Feb-08 21:30N 39°49' W 075°23'1 1.9
2018-Feb-08 21:00N 39°49' W 075°24'5 9.2
2018-Feb-08 20:30N 39°46' W 075°28'3 5.7
2018-Feb-08 20:00N 39°43' W 075°30'510.9
2018-Feb-08 19:30N 39°39' W 075°33'5 9.0
2018-Feb-08 19:00N 39°34' W 075°33'510.3
2018-Feb-08 18:30N 39°29' W 075°34'10 1.1
2018-Feb-08 10:00N 39°21' W 075°27'6 5.9
2018-Feb-08 09:00N 39°26' W 075°32'8 5.4
2018-Feb-08 07:30N 39°34' W 075°33'  
Track history (hours):
 
Tides and Currents Weather Stations Pressure Air Temp Water Temp Dewpoint Dewpoint Depression Visibility Wind Speed Wind Dir Waves Ship Positions

Ivory Coast

Owner: Dann Marine Towing, LC, Chesapeake City, MD. More information available from US FCC via Universal Licensing System and Coast Guard Vessel Documentation Center.

Last reported at 2018-Feb-18 06:30 UTC. Time now 2018-Feb-18 06:52 UTC.
Position N 39°29' W 075°34'.

Length 33 m; draft 5 m.

Type: Tug. MMSI: 367029690.

Date/timePositionNaut miles runAvg speedWind from/ knotsBaromVisibWave heightAir tempDewpointWater temp
2018-Feb-18 06:30N 39°29' W 075°34'3 6.1
2018-Feb-18 06:00N 39°32' W 075°33'3 5.5
2018-Feb-18 05:30N 39°35' W 075°33'3 5.2
2018-Feb-18 05:00N 39°37' W 075°35'3 5.1
2018-Feb-18 04:30N 39°39' W 075°33'3 5.2
2018-Feb-18 04:00N 39°41' W 075°31'3 5.5
2018-Feb-18 03:30N 39°44' W 075°30'3 6.2
2018-Feb-18 03:00N 39°47' W 075°28'3 6.9
2018-Feb-18 02:30N 39°49' W 075°24'1 2.8
2018-Feb-18 02:00N 39°49' W 075°23'0 0.9
2018-Feb-18 01:30N 39°50' W 075°22'0 0.6
2018-Feb-18 00:56N 39°50' W 075°22'0 0.0
2018-Feb-18 00:29N 39°50' W 075°22'0 0.0
2018-Feb-17 23:59N 39°50' W 075°22'0 0.0
2018-Feb-17 23:29N 39°50' W 075°22'0 0.0
2018-Feb-17 22:59N 39°50' W 075°22'0 0.0
2018-Feb-17 22:29N 39°50' W 075°22'0 0.0
2018-Feb-17 21:59N 39°50' W 075°22'0 0.0
2018-Feb-17 21:29N 39°50' W 075°22'0 0.0
2018-Feb-17 20:59N 39°50' W 075°22'0 0.0
2018-Feb-17 20:29N 39°50' W 075°22'0 0.3
2018-Feb-17 20:00N 39°50' W 075°22'2 4.1
2018-Feb-17 19:30N 39°49' W 075°24'4 8.9
2018-Feb-17 19:00N 39°46' W 075°29'612.0
2018-Feb-17 18:30N 39°40' W 075°32'510.4
2018-Feb-17 18:01N 39°35' W 075°34'611.7
2018-Feb-17 17:30N 39°30' W 075°34'611.6
2018-Feb-17 17:01N 39°24' W 075°30'611.4
2018-Feb-17 16:30N 39°20' W 075°25'612.8
2018-Feb-17 16:00N 39°15' W 075°20'612.5
2018-Feb-17 15:31N 39°10' W 075°16'611.6
2018-Feb-17 15:00N 39°05' W 075°12'4 7.0
2018-Feb-17 14:30N 39°02' W 075°15'1 1.2
2018-Feb-17 14:00N 39°02' W 075°15'1 2.2
2018-Feb-17 13:30N 39°02' W 075°14'2 4.5
2018-Feb-17 13:00N 39°04' W 075°13'2 4.9
2018-Feb-17 12:30N 39°07' W 075°13'3 5.9
2018-Feb-17 12:00N 39°09' W 075°15'10 7.2
2018-Feb-17 10:40N 39°17' W 075°22'1 8.7
2018-Feb-17 10:30N 39°18' W 075°23'5 9.5
2018-Feb-17 10:01N 39°22' W 075°27'5 9.6
2018-Feb-17 09:30N 39°25' W 075°31'4 8.7
2018-Feb-17 09:00N 39°29' W 075°34'4 8.9
2018-Feb-17 08:30N 39°34' W 075°33'4 8.4
2018-Feb-17 08:00N 39°38' W 075°35'4 7.8
2018-Feb-17 07:31N 39°40' W 075°32'4 7.3
2018-Feb-17 06:59N 39°44' W 075°30'3 6.4
2018-Feb-17 06:27N 39°47' W 075°28'2 3.8
2018-Feb-17 06:00N 39°48' W 075°26'0 0.8
2018-Feb-17 05:30N 39°48' W 075°25'0 0.2
2018-Feb-17 04:21N 39°48' W 075°25'0 1.3
2018-Feb-17 04:00N 39°49' W 075°25'0 0.7
2018-Feb-17 03:25N 39°48' W 075°25'3 2.3
2018-Feb-17 02:10N 39°50' W 075°22'0 0.1
2018-Feb-17 01:57N 39°50' W 075°22'0 0.0
2018-Feb-17 01:28N 39°50' W 075°22'0 0.0
2018-Feb-16 21:30N 39°50' W 075°22'0 0.0
2018-Feb-16 20:03N 39°50' W 075°22'0 0.0
2018-Feb-16 19:51N 39°50' W 075°22'0 0.1
2018-Feb-16 18:54N 39°50' W 075°22'0 0.1
2018-Feb-16 18:30N 39°50' W 075°22'0 0.0
2018-Feb-16 18:00N 39°50' W 075°22'0 0.1
2018-Feb-16 17:30N 39°50' W 075°22'0 0.0
2018-Feb-16 17:00N 39°50' W 075°22'0 0.0
2018-Feb-16 16:30N 39°50' W 075°22'0 0.0
2018-Feb-16 16:00N 39°50' W 075°22'0 0.0
2018-Feb-16 15:30N 39°50' W 075°22'0 0.0
2018-Feb-16 15:00N 39°50' W 075°22'0 0.0
2018-Feb-16 14:30N 39°50' W 075°22'0 0.0
2018-Feb-16 13:57N 39°50' W 075°22'0 0.1
2018-Feb-16 13:30N 39°50' W 075°22'0 0.1
2018-Feb-16 12:57N 39°50' W 075°22'0 0.0
2018-Feb-16 12:30N 39°50' W 075°22'0 0.0
2018-Feb-16 12:00N 39°50' W 075°22'0 0.0
2018-Feb-16 11:30N 39°50' W 075°22'0 0.0
2018-Feb-16 11:00N 39°50' W 075°22'0 0.0
2018-Feb-16 10:30N 39°50' W 075°22'0 0.0
2018-Feb-16 10:00N 39°50' W 075°22'0 0.0
2018-Feb-16 09:30N 39°50' W 075°22'0 0.0
2018-Feb-16 09:00N 39°50' W 075°22'0 0.0
2018-Feb-16 08:30N 39°50' W 075°22'0 0.0
2018-Feb-16 08:00N 39°50' W 075°22'0 0.0
2018-Feb-16 07:30N 39°50' W 075°22'0 0.1
2018-Feb-16 06:57N 39°50' W 075°22'0 0.1
2018-Feb-16 06:30N 39°50' W 075°22'0 0.1
2018-Feb-16 06:00N 39°50' W 075°22'0 0.0
2018-Feb-16 05:30N 39°50' W 075°22'0 0.1
2018-Feb-16 05:00N 39°50' W 075°22'0 0.0
2018-Feb-16 04:30N 39°50' W 075°22'0 0.0
2018-Feb-16 04:00N 39°50' W 075°22'0 0.1
2018-Feb-16 03:30N 39°50' W 075°22'0 0.0
2018-Feb-16 03:00N 39°50' W 075°22'0 0.0
2018-Feb-16 02:30N 39°50' W 075°22'0 0.0
2018-Feb-16 02:00N 39°50' W 075°22'0 0.2
2018-Feb-16 01:30N 39°50' W 075°22'0 0.0
2018-Feb-15 23:06N 39°50' W 075°22'0 0.0
2018-Feb-15 23:00N 39°50' W 075°22'0 0.0
2018-Feb-15 22:30N 39°50' W 075°22'0 0.0
2018-Feb-15 22:00N 39°50' W 075°22'0 0.0
2018-Feb-15 21:30N 39°50' W 075°22'0 0.0
2018-Feb-15 21:00N 39°50' W 075°22'0 0.0
2018-Feb-15 20:30N 39°50' W 075°22'0 0.0
2018-Feb-15 20:00N 39°50' W 075°22'0 0.0
2018-Feb-15 19:30N 39°50' W 075°22'0 0.2
2018-Feb-15 19:00N 39°50' W 075°22'0 0.1
2018-Feb-15 18:30N 39°50' W 075°22'0 0.0
2018-Feb-15 18:00N 39°50' W 075°22'0 0.0
2018-Feb-15 17:30N 39°50' W 075°22'0 0.0
2018-Feb-15 16:57N 39°50' W 075°22'0 0.0
2018-Feb-15 16:30N 39°50' W 075°22'0 0.0
2018-Feb-15 16:00N 39°50' W 075°22'0 0.0
2018-Feb-15 15:30N 39°50' W 075°22'0 0.0
2018-Feb-15 15:00N 39°50' W 075°22'0 0.0
2018-Feb-15 14:29N 39°50' W 075°22'0 0.0
2018-Feb-15 14:00N 39°50' W 075°22'0 0.0
2018-Feb-15 13:30N 39°50' W 075°22'0 0.1
2018-Feb-15 12:57N 39°50' W 075°22'0 0.2
2018-Feb-15 12:30N 39°50' W 075°22'0 0.0
2018-Feb-15 12:00N 39°50' W 075°22'0 0.0
2018-Feb-15 11:30N 39°50' W 075°22'0 0.0
2018-Feb-15 11:00N 39°50' W 075°22'0 0.0
2018-Feb-15 10:30N 39°50' W 075°22'0 0.0
2018-Feb-15 10:00N 39°50' W 075°22'0 0.0
2018-Feb-15 09:30N 39°50' W 075°22'0 0.0
2018-Feb-15 09:00N 39°50' W 075°22'0 0.0
2018-Feb-15 08:30N 39°50' W 075°22'0 0.0
2018-Feb-15 08:00N 39°50' W 075°22'0 0.0
2018-Feb-15 07:30N 39°50' W 075°22'0 0.0
2018-Feb-15 07:00N 39°50' W 075°22'0 0.1
2018-Feb-15 06:30N 39°50' W 075°22'0 0.1
2018-Feb-15 06:00N 39°50' W 075°22'0 0.0
2018-Feb-15 05:30N 39°50' W 075°22'0 0.0
2018-Feb-15 05:00N 39°50' W 075°22'0 0.0
2018-Feb-15 04:31N 39°50' W 075°22'0 0.5
2018-Feb-15 04:00N 39°50' W 075°22'3 5.8
2018-Feb-15 03:30N 39°48' W 075°25'510.7
2018-Feb-15 03:00N 39°44' W 075°30'612.4
2018-Feb-15 02:30N 39°39' W 075°34'611.3
2018-Feb-15 02:01N 39°33' W 075°32'612.0
2018-Feb-15 01:30N 39°27' W 075°33'611.2
2018-Feb-15 01:00N 39°23' W 075°28'611.9
2018-Feb-15 00:30N 39°18' W 075°23'611.5
2018-Feb-15 00:00N 39°14' W 075°18'611.7
2018-Feb-14 23:30N 39°09' W 075°14'610.1
2018-Feb-14 22:53N 39°03' W 075°14'2 5.1
2018-Feb-14 22:30N 39°04' W 075°16'3 5.5
2018-Feb-14 22:01N 39°01' W 075°14'2 4.6
2018-Feb-14 21:30N 39°04' W 075°13'2 4.5
2018-Feb-14 21:01N 39°06' W 075°12'3 5.8
2018-Feb-14 20:31N 39°08' W 075°14'4 7.0
2018-Feb-14 20:00N 39°11' W 075°16'4 8.3
2018-Feb-14 19:30N 39°15' W 075°19'5 9.5
2018-Feb-14 19:00N 39°18' W 075°23'5 9.3
2018-Feb-14 18:31N 39°22' W 075°27'5 9.1
2018-Feb-14 18:00N 39°25' W 075°31'4 8.2
2018-Feb-14 17:30N 39°28' W 075°34'4 7.8
2018-Feb-14 16:59N 39°32' W 075°33'3 6.7
2018-Feb-14 16:30N 39°35' W 075°34'3 5.5
2018-Feb-14 16:01N 39°38' W 075°34'3 5.6
2018-Feb-14 15:30N 39°40' W 075°32'3 5.3
2018-Feb-14 15:00N 39°43' W 075°31'3 5.3
2018-Feb-14 14:31N 39°45' W 075°29'3 5.3
2018-Feb-14 14:00N 39°47' W 075°27'3 5.6
2018-Feb-14 13:30N 39°49' W 075°24'1 2.4
2018-Feb-14 13:00N 39°50' W 075°23'1 1.4
2018-Feb-14 12:31N 39°49' W 075°23'0 0.2
2018-Feb-14 12:01N 39°49' W 075°24'0 0.4
2018-Feb-14 11:30N 39°49' W 075°23'1 1.5
2018-Feb-14 11:00N 39°49' W 075°24'2 3.9
2018-Feb-14 10:31N 39°48' W 075°26'2 4.9
2018-Feb-14 10:01N 39°46' W 075°28'3 5.5
2018-Feb-14 09:30N 39°44' W 075°30'3 5.4
2018-Feb-14 09:01N 39°41' W 075°31'3 6.6
2018-Feb-14 08:30N 39°38' W 075°34'3 6.8
2018-Feb-14 08:01N 39°35' W 075°33'4 7.2
2018-Feb-14 07:30N 39°31' W 075°33'4 7.2
2018-Feb-14 07:00N 39°28' W 075°33'4 7.5
2018-Feb-14 06:30N 39°25' W 075°31'3 6.3
2018-Feb-14 06:00N 39°22' W 075°28'4 8.0
2018-Feb-14 05:30N 39°19' W 075°25'4 8.0
2018-Feb-14 05:00N 39°16' W 075°21'4 8.4
2018-Feb-14 04:30N 39°13' W 075°18'4 8.1
2018-Feb-14 04:00N 39°10' W 075°15'4 7.0
2018-Feb-14 03:30N 39°07' W 075°12'4 6.6
2018-Feb-14 02:55N 39°03' W 075°14'1 3.0
2018-Feb-14 02:30N 39°03' W 075°15'1 1.2
2018-Feb-14 02:00N 39°02' W 075°15'1 2.1
2018-Feb-14 01:30N 39°02' W 075°14'2 4.9
2018-Feb-14 01:00N 39°04' W 075°12'2 4.7
2018-Feb-14 00:30N 39°07' W 075°13'2 5.0
2018-Feb-14 00:00N 39°09' W 075°14'2 4.9
2018-Feb-13 23:30N 39°11' W 075°16'2 5.0
2018-Feb-13 23:00N 39°13' W 075°18'3 5.7
2018-Feb-13 22:30N 39°15' W 075°20'3 5.9
2018-Feb-13 22:00N 39°17' W 075°22'3 6.7
2018-Feb-13 21:30N 39°20' W 075°25'4 7.9
2018-Feb-13 21:00N 39°23' W 075°29'4 8.7
2018-Feb-13 20:30N 39°26' W 075°32'4 7.5
2018-Feb-13 20:00N 39°30' W 075°34'4 8.8
2018-Feb-13 19:30N 39°34' W 075°33'4 8.3
2018-Feb-13 19:00N 39°38' W 075°34'4 8.3
2018-Feb-13 18:30N 39°41' W 075°31'4 7.8
2018-Feb-13 18:00N 39°45' W 075°30'4 7.1
2018-Feb-13 17:30N 39°48' W 075°26'3 5.6
2018-Feb-13 17:01N 39°49' W 075°23'1 1.2
2018-Feb-13 16:30N 39°49' W 075°23'2 3.2
2018-Feb-13 16:00N 39°48' W 075°25'611.9
2018-Feb-13 15:31N 39°44' W 075°30'612.2
2018-Feb-13 15:00N 39°39' W 075°33'511.0
2018-Feb-13 14:30N 39°33' W 075°32'612.4
2018-Feb-13 14:00N 39°27' W 075°33'612.2
2018-Feb-13 13:30N 39°23' W 075°28'713.2
2018-Feb-13 13:00N 39°18' W 075°22'612.9
2018-Feb-13 12:30N 39°13' W 075°17'612.6
2018-Feb-13 12:00N 39°07' W 075°13'510.1
2018-Feb-13 11:30N 39°02' W 075°14'2 3.8
2018-Feb-13 11:00N 39°03' W 075°16'2 4.0
2018-Feb-13 10:30N 39°02' W 075°14'3 5.6
2018-Feb-13 10:00N 39°04' W 075°12'3 5.6
2018-Feb-13 09:30N 39°07' W 075°13'3 6.3
2018-Feb-13 09:00N 39°10' W 075°15'3 6.9
2018-Feb-13 08:30N 39°13' W 075°17'4 8.1
2018-Feb-13 08:00N 39°16' W 075°21'5 9.5
2018-Feb-13 07:30N 39°20' W 075°25'5 9.6
2018-Feb-13 07:01N 39°23' W 075°29'5 9.4
2018-Feb-13 06:30N 39°27' W 075°33'4 8.7
2018-Feb-13 06:00N 39°31' W 075°33'4 8.5
2018-Feb-13 05:30N 39°35' W 075°34'3 7.0
2018-Feb-13 05:00N 39°39' W 075°33'4 7.5
2018-Feb-13 04:30N 39°42' W 075°31'3 6.9
2018-Feb-13 04:00N 39°45' W 075°29'3 6.0
2018-Feb-13 03:30N 39°47' W 075°27'3 5.4
2018-Feb-13 03:00N 39°49' W 075°24'1 1.0
2018-Feb-13 02:31N 39°49' W 075°23'0 0.7
2018-Feb-13 02:01N 39°49' W 075°23'1 2.4
2018-Feb-13 01:31N 39°49' W 075°24'5 9.7
2018-Feb-13 01:00N 39°46' W 075°29'612.0
2018-Feb-13 00:30N 39°40' W 075°32'510.5
2018-Feb-13 00:00N 39°35' W 075°33'611.4
2018-Feb-12 23:30N 39°29' W 075°34'5 9.5
2018-Feb-12 23:00N 39°25' W 075°31'510.8
2018-Feb-12 22:31N 39°21' W 075°26'611.1
2018-Feb-12 22:00N 39°17' W 075°21'510.6
2018-Feb-12 21:30N 39°13' W 075°17'510.5
2018-Feb-12 21:00N 39°08' W 075°14'5 9.3
2018-Feb-12 20:29N 39°03' W 075°13'2 4.7
2018-Feb-12 20:00N 39°04' W 075°16'3 5.9
2018-Feb-12 19:30N 39°01' W 075°14'3 6.3
2018-Feb-12 19:00N 39°04' W 075°13'3 6.5
2018-Feb-12 18:30N 39°07' W 075°13'4 8.7
2018-Feb-12 18:00N 39°11' W 075°16'5 8.9
2018-Feb-12 17:30N 39°15' W 075°19'4 9.1
2018-Feb-12 17:00N 39°18' W 075°23'4 8.8
2018-Feb-12 16:30N 39°21' W 075°27'4 8.4
2018-Feb-12 16:00N 39°25' W 075°31'4 7.7
2018-Feb-12 15:30N 39°28' W 075°34'3 6.8
2018-Feb-12 15:00N 39°31' W 075°33'3 6.2
2018-Feb-12 14:30N 39°34' W 075°33'3 5.8
2018-Feb-12 14:00N 39°37' W 075°35'2 4.7
2018-Feb-12 13:30N 39°39' W 075°33'2 4.7
2018-Feb-12 13:00N 39°41' W 075°31'2 4.7
2018-Feb-12 12:30N 39°43' W 075°30'3 5.1
2018-Feb-12 12:00N 39°45' W 075°29'3 5.0
2018-Feb-12 11:30N 39°47' W 075°27'2 5.0
2018-Feb-12 11:00N 39°49' W 075°24'1 2.9
2018-Feb-12 10:31N 39°49' W 075°23'0 0.3
2018-Feb-12 10:00N 39°49' W 075°23'1 1.9
2018-Feb-12 09:30N 39°50' W 075°22'0 0.0
2018-Feb-12 09:01N 39°50' W 075°22'0 0.0
2018-Feb-12 08:30N 39°50' W 075°22'0 0.0
2018-Feb-12 08:00N 39°50' W 075°22'0 0.0
2018-Feb-12 07:29N 39°50' W 075°22'0 0.0
2018-Feb-12 06:59N 39°50' W 075°22'0 0.0
2018-Feb-12 06:29N 39°50' W 075°22'0 0.0
2018-Feb-12 05:59N 39°50' W 075°22'0 0.0
2018-Feb-12 05:29N 39°50' W 075°22'0 0.0
2018-Feb-12 04:59N 39°50' W 075°22'0 0.0
2018-Feb-12 04:29N 39°50' W 075°22'0 0.1
2018-Feb-12 03:59N 39°50' W 075°22'0 0.0
2018-Feb-12 03:29N 39°50' W 075°22'0 0.0
2018-Feb-12 02:59N 39°50' W 075°22'0 0.0
2018-Feb-12 02:29N 39°50' W 075°22'0 0.0
2018-Feb-12 01:59N 39°50' W 075°22'0 0.0
2018-Feb-12 01:29N 39°50' W 075°22'0 0.1
2018-Feb-12 00:59N 39°50' W 075°22'0 0.0
2018-Feb-12 00:29N 39°50' W 075°22'0 0.0
2018-Feb-11 23:59N 39°50' W 075°22'0 0.0
2018-Feb-11 23:29N 39°50' W 075°22'0 0.1
2018-Feb-11 22:59N 39°50' W 075°22'0 0.1
2018-Feb-11 22:30N 39°50' W 075°22'0 0.1
2018-Feb-11 22:01N 39°50' W 075°22'0 0.0
2018-Feb-11 21:30N 39°50' W 075°22'0 0.0
2018-Feb-11 21:00N 39°50' W 075°22'0 0.0
2018-Feb-11 20:30N 39°50' W 075°22'0 0.0
2018-Feb-11 20:01N 39°50' W 075°22'0 0.0
2018-Feb-11 19:30N 39°50' W 075°22'0 0.0
2018-Feb-11 19:01N 39°50' W 075°22'0 0.0
2018-Feb-11 18:31N 39°50' W 075°22'0 0.0
2018-Feb-11 18:01N 39°50' W 075°22'0 0.0
2018-Feb-11 17:30N 39°50' W 075°22'0 0.0
2018-Feb-11 17:00N 39°50' W 075°22'0 0.0
2018-Feb-11 16:30N 39°50' W 075°22'0 0.0
2018-Feb-11 15:59N 39°50' W 075°22'0 0.1
2018-Feb-11 15:29N 39°50' W 075°22'0 0.1
2018-Feb-11 14:59N 39°50' W 075°22'0 0.0
2018-Feb-11 14:29N 39°50' W 075°22'0 0.0
2018-Feb-11 13:59N 39°50' W 075°22'0 0.1
2018-Feb-11 13:29N 39°50' W 075°22'0 0.0
2018-Feb-11 12:56N 39°50' W 075°22'0 0.0
2018-Feb-11 12:29N 39°50' W 075°22'0 0.0
2018-Feb-11 11:59N 39°50' W 075°22'0 0.0
2018-Feb-11 11:26N 39°50' W 075°22'0 0.0
2018-Feb-11 10:59N 39°50' W 075°22'0 0.0
2018-Feb-11 10:29N 39°50' W 075°22'0 0.0
2018-Feb-11 09:59N 39°50' W 075°22'0 0.1
2018-Feb-11 09:29N 39°50' W 075°22'0 0.0
2018-Feb-11 08:59N 39°50' W 075°22'0 0.0
2018-Feb-11 08:29N 39°50' W 075°22'0 0.0
2018-Feb-11 07:59N 39°50' W 075°22'0 0.0
2018-Feb-11 07:29N 39°50' W 075°22'0 0.0
2018-Feb-11 06:59N 39°50' W 075°22'0 0.0
2018-Feb-11 06:29N 39°50' W 075°22'0 0.0
2018-Feb-11 05:59N 39°50' W 075°22'0 0.1
2018-Feb-11 05:30N 39°50' W 075°22'2 3.3
2018-Feb-11 05:00N 39°49' W 075°24'2 3.5
2018-Feb-11 04:30N 39°48' W 075°26'5 9.2
2018-Feb-11 04:00N 39°45' W 075°30'510.1
2018-Feb-11 03:30N 39°40' W 075°32'4 8.9
2018-Feb-11 03:00N 39°36' W 075°34'510.1
2018-Feb-11 02:30N 39°30' W 075°33'510.0
2018-Feb-11 02:00N 39°26' W 075°32'5 9.5
2018-Feb-11 01:30N 39°22' W 075°28'510.9
2018-Feb-11 01:00N 39°18' W 075°23'511.0
2018-Feb-11 00:30N 39°14' W 075°18'611.1
2018-Feb-11 00:00N 39°09' W 075°15'7 9.5
2018-Feb-10 23:17N 39°02' W 075°14'1 4.7
2018-Feb-10 22:59N 39°03' W 075°15'2 3.2
2018-Feb-10 22:29N 39°01' W 075°15'2 5.0
2018-Feb-10 22:00N 39°04' W 075°13'3 5.4
2018-Feb-10 21:30N 39°06' W 075°12'3 6.1
2018-Feb-10 21:00N 39°08' W 075°14'3 6.2
2018-Feb-10 20:31N 39°11' W 075°16'3 6.5
2018-Feb-10 20:00N 39°14' W 075°18'3 7.0
2018-Feb-10 19:31N 39°17' W 075°21'4 8.0
2018-Feb-10 19:01N 39°20' W 075°25'4 8.9
2018-Feb-10 18:30N 39°23' W 075°29'5 9.2
2018-Feb-10 18:01N 39°26' W 075°33'4 8.5
2018-Feb-10 17:30N 39°31' W 075°33'4 8.7
2018-Feb-10 17:00N 39°35' W 075°33'4 7.8
2018-Feb-10 16:30N 39°39' W 075°33'4 8.2
2018-Feb-10 16:01N 39°42' W 075°31'3 6.5
2018-Feb-10 15:30N 39°45' W 075°29'3 5.8
2018-Feb-10 15:01N 39°48' W 075°27'2 4.3
2018-Feb-10 14:30N 39°49' W 075°24'1 2.1
2018-Feb-10 14:00N 39°49' W 075°23'0 0.4
2018-Feb-10 13:29N 39°49' W 075°23'1 1.8
2018-Feb-10 12:59N 39°50' W 075°22'0 0.1
2018-Feb-10 12:29N 39°50' W 075°22'0 0.0
2018-Feb-10 11:59N 39°50' W 075°22'0 0.0
2018-Feb-10 11:29N 39°50' W 075°22'0 0.0
2018-Feb-10 10:59N 39°50' W 075°22'0 0.0
2018-Feb-10 10:29N 39°50' W 075°22'0 0.0
2018-Feb-10 09:59N 39°50' W 075°22'0 0.0
2018-Feb-10 09:29N 39°50' W 075°22'0 0.2
2018-Feb-10 08:59N 39°50' W 075°22'0 0.0
2018-Feb-10 08:29N 39°50' W 075°22'0 0.0
2018-Feb-10 07:59N 39°50' W 075°22'0 0.0
2018-Feb-10 07:29N 39°50' W 075°22'0 0.0
2018-Feb-10 06:59N 39°50' W 075°22'0 0.0
2018-Feb-10 06:29N 39°50' W 075°22'0 0.0
2018-Feb-10 05:59N 39°50' W 075°22'0 0.0
2018-Feb-10 05:29N 39°50' W 075°22'0 0.0
2018-Feb-10 04:59N 39°50' W 075°22'0 0.0
2018-Feb-10 04:29N 39°50' W 075°22'0 0.0
2018-Feb-10 03:59N 39°50' W 075°22'0 0.0
2018-Feb-10 03:30N 39°50' W 075°22'2 3.3
2018-Feb-10 03:01N 39°49' W 075°24'2 3.9
2018-Feb-10 02:30N 39°48' W 075°26'510.5
2018-Feb-10 02:01N 39°44' W 075°30'510.8
2018-Feb-10 01:30N 39°39' W 075°33'5 9.7
2018-Feb-10 01:00N 39°34' W 075°33'611.1
2018-Feb-10 00:30N 39°29' W 075°34'5 9.9
2018-Feb-10 00:00N 39°24' W 075°30'612.1
2018-Feb-09 23:30N 39°20' W 075°25'611.8
2018-Feb-09 23:00N 39°16' W 075°20'311.9
2018-Feb-09 22:46N 39°13' W 075°18'3 0.9
2018-Feb-09 19:01N 39°10' W 075°16'27 7.6
2018-Feb-09 15:30N 39°33' W 075°33'8 5.7
2018-Feb-09 14:00N 39°42' W 075°31'3 5.7
2018-Feb-09 13:30N 39°45' W 075°30'4 4.5
2018-Feb-09 12:30N 39°48' W 075°26'2 4.0
2018-Feb-09 12:00N 39°49' W 075°24'0 0.9
2018-Feb-09 11:30N 39°49' W 075°23'1 0.5
2018-Feb-09 10:30N 39°50' W 075°23'0 0.0
2018-Feb-09 10:00N 39°50' W 075°23'0 0.0
2018-Feb-09 09:30N 39°50' W 075°23'0 0.0
2018-Feb-09 08:30N 39°50' W 075°23'0 0.0
2018-Feb-09 07:30N 39°50' W 075°23'0 0.0
2018-Feb-09 06:00N 39°50' W 075°23'0 0.0
2018-Feb-09 05:30N 39°49' W 075°23'0 0.0
2018-Feb-09 05:00N 39°49' W 075°23'0 0.0
2018-Feb-09 04:30N 39°49' W 075°23'0 0.0
2018-Feb-09 03:30N 39°49' W 075°23'0 0.0
2018-Feb-09 03:00N 39°49' W 075°23'0 0.0
2018-Feb-09 02:30N 39°49' W 075°23'0 0.0
2018-Feb-09 02:00N 39°49' W 075°23'0 0.0
2018-Feb-09 01:30N 39°49' W 075°23'0 0.1
2018-Feb-09 00:00N 39°50' W 075°23'0 0.0
2018-Feb-08 23:30N 39°50' W 075°23'0 0.0
2018-Feb-08 23:00N 39°50' W 075°23'0 0.0
2018-Feb-08 22:30N 39°50' W 075°23'0 0.0
2018-Feb-08 22:00N 39°50' W 075°23'0 0.4
2018-Feb-08 21:30N 39°49' W 075°23'1 1.9
2018-Feb-08 21:00N 39°49' W 075°24'5 9.2
2018-Feb-08 20:30N 39°46' W 075°28'3 5.7
2018-Feb-08 20:00N 39°43' W 075°30'510.9
2018-Feb-08 19:30N 39°39' W 075°33'5 9.0
2018-Feb-08 19:00N 39°34' W 075°33'510.3
2018-Feb-08 18:30N 39°29' W 075°34'10 1.1
2018-Feb-08 10:00N 39°21' W 075°27'6 5.9
2018-Feb-08 09:00N 39°26' W 075°32'8 5.4
2018-Feb-08 07:30N 39°34' W 075°33'  

Dump ship's entire track history